Time;durP1;ratioP1;P1;durP2;ratioP2;P2;SDS_P1;SDS_P2;PMS_P1;PMS_P2;Temp;Humidity;BMP_temperature;BMP_pressure;BME280_temperature;BME280_humidity;BME280_pressure;Samples;Min_cycle;Max_cycle;Signal;HPM_P1;HPM_P2
2023/01/07 00:00:47;;;;;;;15.55;7.80;;;;;;;7.66;100.00;101403.13;6247416;28;20428;-69
2023/01/07 00:03:49;;;;;;;18.65;8.20;;;;;;;7.64;100.00;101404.97;6247082;28;20052;-69
2023/01/07 00:06:53;;;;;;;16.90;7.68;;;;;;;7.67;100.00;101404.84;6247322;28;20054;-68
2023/01/07 00:09:54;;;;;;;19.80;8.32;;;;;;;7.71;100.00;101403.00;6246444;28;20053;-68
2023/01/07 00:12:55;;;;;;;18.50;8.35;;;;;;;7.72;100.00;101399.47;6247316;28;20060;-68
2023/01/07 00:15:57;;;;;;;17.05;8.15;;;;;;;7.78;100.00;101404.53;6246848;28;20386;-69
2023/01/07 00:19:00;;;;;;;16.30;7.60;;;;;;;7.82;100.00;101396.53;6247115;28;20060;-68
2023/01/07 00:22:03;;;;;;;17.95;8.02;;;;;;;7.83;100.00;101400.88;6246898;28;20053;-69
2023/01/07 00:25:05;;;;;;;18.27;8.70;;;;;;;7.86;100.00;101398.16;6246619;28;20064;-68
2023/01/07 00:28:06;;;;;;;18.83;8.30;;;;;;;7.86;100.00;101386.84;6247068;28;20508;-66
2023/01/07 00:31:09;;;;;;;16.92;7.22;;;;;;;7.96;100.00;101395.25;6246615;28;20046;-69
2023/01/07 00:34:11;;;;;;;14.60;7.47;;;;;;;7.99;100.00;101393.38;6246537;28;20414;-69
2023/01/07 00:40:33;;;;;;;14.40;6.57;;;;;;;8.07;100.00;101374.81;6245409;28;20050;-69
2023/01/07 00:43:34;;;;;;;20.08;8.10;;;;;;;8.06;100.00;101373.09;6246566;28;20045;-67
2023/01/07 00:46:36;;;;;;;16.67;7.47;;;;;;;8.07;100.00;101365.19;6246716;28;20048;-69
2023/01/07 00:49:37;;;;;;;15.15;7.03;;;;;;;8.05;100.00;101369.63;6246449;28;20064;-66
2023/01/07 00:52:40;;;;;;;18.00;7.47;;;;;;;8.13;100.00;101377.25;6246436;28;20057;-69
2023/01/07 00:55:41;;;;;;;17.95;7.85;;;;;;;8.11;100.00;101374.66;6246261;28;20394;-68
2023/01/07 00:58:43;;;;;;;13.40;6.13;;;;;;;8.14;100.00;101374.56;6246833;28;20056;-67
2023/01/07 01:01:44;;;;;;;13.80;6.55;;;;;;;8.19;100.00;101369.16;6246094;28;20050;-67
2023/01/07 01:04:45;;;;;;;12.35;6.40;;;;;;;8.19;100.00;101376.19;6246273;28;20072;-67
2023/01/07 01:07:49;;;;;;;13.57;6.97;;;;;;;8.20;100.00;101378.72;6246464;28;20080;-67
2023/01/07 01:10:50;;;;;;;14.77;6.53;;;;;;;8.21;100.00;101363.88;6246019;28;20053;-68
2023/01/07 01:13:51;;;;;;;16.58;7.18;;;;;;;8.22;100.00;101365.56;6246359;28;20516;-67
2023/01/07 01:16:52;;;;;;;14.50;7.53;;;;;;;8.24;100.00;101363.78;6246023;28;20049;-67
2023/01/07 01:19:54;;;;;;;13.85;6.72;;;;;;;8.25;100.00;101353.25;6246289;28;20058;-67
2023/01/07 01:22:56;;;;;;;12.77;6.95;;;;;;;8.28;100.00;101361.00;6250314;28;20061;-67
2023/01/07 01:26:03;;;;;;;11.63;5.60;;;;;;;8.31;100.00;101363.53;6250938;28;20052;-67
2023/01/07 01:29:04;;;;;;;15.40;6.75;;;;;;;8.32;100.00;101354.75;6251040;28;20059;-67
2023/01/07 01:32:05;;;;;;;14.98;7.30;;;;;;;8.31;100.00;101358.28;6250703;28;20050;-68
2023/01/07 01:35:07;;;;;;;10.98;6.25;;;;;;;8.32;100.00;101365.25;6250660;28;20042;-67
2023/01/07 01:38:10;;;;;;;11.73;6.70;;;;;;;8.35;100.00;101359.03;6250791;28;20049;-68
2023/01/07 01:41:15;;;;;;;11.27;6.15;;;;;;;8.39;100.00;101364.13;6250580;28;20049;-67
2023/01/07 01:44:37;;;;;;;12.77;5.82;;;;;;;8.37;100.00;101362.50;6250233;28;20052;-67
2023/01/07 01:47:43;;;;;;;11.13;6.03;;;;;;;8.36;100.00;101366.88;6250609;28;20105;-68
2023/01/07 01:50:47;;;;;;;11.10;6.03;;;;;;;8.39;100.00;101360.66;6270018;23;20032;-72
2023/01/07 01:53:52;;;;;;;12.13;6.72;;;;;;;8.42;100.00;101362.34;6249962;28;20049;-72
2023/01/07 01:56:57;;;;;;;14.15;6.15;;;;;;;8.42;100.00;101372.81;6233420;28;20050;-72
2023/01/07 01:59:59;;;;;;;13.52;5.97;;;;;;;8.44;100.00;101365.75;6225658;28;20145;-72
2023/01/07 02:03:01;;;;;;;12.13;5.55;;;;;;;8.46;100.00;101361.31;6225465;28;20054;-72
2023/01/07 02:06:03;;;;;;;12.18;6.78;;;;;;;8.47;100.00;101363.88;6225634;28;20049;-72
2023/01/07 02:09:06;;;;;;;10.57;6.05;;;;;;;8.48;100.00;101362.13;6225534;28;20052;-72
2023/01/07 02:12:16;;;;;;;10.88;6.53;;;;;;;8.50;100.00;101360.31;6225199;28;20426;-72
2023/01/07 02:15:26;;;;;;;10.35;6.20;;;;;;;8.50;100.00;101363.78;6225111;28;20058;-72
2023/01/07 02:18:42;;;;;;;14.63;6.18;;;;;;;8.50;100.00;101358.53;6225286;28;20049;-72
2023/01/07 02:21:54;;;;;;;12.27;7.18;;;;;;;8.53;100.00;101358.41;6225042;28;20049;-72
2023/01/07 02:25:20;;;;;;;10.77;6.43;;;;;;;8.57;100.00;101349.53;6225104;28;20054;-72
2023/01/07 02:28:50;;;;;;;12.07;6.63;;;;;;;8.59;100.00;101342.50;6225030;28;20494;-72
2023/01/07 02:32:09;;;;;;;13.35;6.57;;;;;;;8.59;100.00;101346.88;6224517;28;20056;-72
2023/01/07 02:35:23;;;;;;;13.63;7.22;;;;;;;8.55;100.00;101354.00;6224342;28;20050;-72
2023/01/07 02:38:37;;;;;;;15.80;7.93;;;;;;;8.60;100.00;101348.59;6224938;28;20509;-72
2023/01/07 02:41:48;;;;;;;14.95;6.90;;;;;;;8.61;100.00;101345.91;6224693;28;20513;-72
2023/01/07 02:44:59;;;;;;;15.90;7.40;;;;;;;8.62;100.00;101342.38;6224584;28;20448;-72
2023/01/07 02:48:06;;;;;;;13.80;6.65;;;;;;;8.66;100.00;101337.03;6224815;28;20046;-72
2023/01/07 02:51:08;;;;;;;15.40;7.45;;;;;;;8.70;100.00;101329.00;6224367;28;20064;-72
2023/01/07 02:54:15;;;;;;;12.80;6.70;;;;;;;8.68;100.00;101324.75;6224545;28;20049;-72
2023/01/07 02:57:47;;;;;;;16.30;8.05;;;;;;;8.73;100.00;101321.03;6224373;28;20049;-72
2023/01/07 03:01:08;;;;;;;13.05;7.00;;;;;;;8.74;100.00;101316.66;6224533;28;20050;-72
2023/01/07 03:04:27;;;;;;;14.13;6.32;;;;;;;8.69;100.00;101310.72;6224471;28;20054;-72
2023/01/07 03:07:35;;;;;;;;;;;;;;;8.71;100.00;101309.75;6224834;28;20049;-72
2023/01/07 03:10:44;;;;;;;12.77;6.75;;;;;;;8.71;100.00;101301.88;6224177;28;19928;-72
2023/01/07 03:13:49;;;;;;;11.95;6.43;;;;;;;8.72;100.00;101300.13;6223836;28;20054;-72
2023/01/07 03:16:54;;;;;;;13.80;7.55;;;;;;;8.73;100.00;101286.13;6224251;28;20054;-73
2023/01/07 03:20:00;;;;;;;13.45;7.55;;;;;;;8.74;100.00;101291.31;6229066;28;20049;-72
2023/01/07 03:23:06;;;;;;;11.35;5.70;;;;;;;8.74;100.00;101283.44;6248409;28;20045;-72
2023/01/07 03:26:10;;;;;;;11.18;6.85;;;;;;;8.74;100.00;101279.97;6248224;28;20053;-72
2023/01/07 03:29:14;;;;;;;12.98;6.55;;;;;;;8.75;100.00;101279.06;6248215;28;20041;-72
2023/01/07 03:32:17;;;;;;;14.68;7.15;;;;;;;8.79;100.00;101276.25;6247960;28;20045;-72
2023/01/07 03:35:22;;;;;;;10.65;6.40;;;;;;;8.81;100.00;101281.44;6247800;28;20413;-72
2023/01/07 03:38:26;;;;;;;11.70;6.28;;;;;;;8.80;100.00;101287.59;6247898;28;20056;-72
2023/01/07 03:44:47;;;;;;;11.50;6.10;;;;;;;8.81;100.00;101271.84;6247470;28;20061;-72
2023/01/07 03:47:50;;;;;;;11.70;6.32;;;;;;;8.84;100.00;101276.09;6247937;28;20128;-72
2023/01/07 03:50:53;;;;;;;10.95;6.15;;;;;;;8.88;100.00;101269.81;6246113;28;20053;-72
2023/01/07 03:53:54;;;;;;;14.77;6.03;;;;;;;8.88;100.00;101267.19;6247588;28;20049;-72
2023/01/07 03:56:55;;;;;;;13.27;7.18;;;;;;;8.91;100.00;101266.25;6247354;28;20416;-72
2023/01/07 03:59:57;;;;;;;9.23;5.70;;;;;;;8.94;100.00;101259.09;6247491;28;20049;-72
2023/01/07 04:02:58;;;;;;;9.25;5.78;;;;;;;8.96;100.00;101254.66;6247259;28;20432;-72
2023/01/07 04:06:01;;;;;;;10.15;6.75;;;;;;;8.99;100.00;101258.91;6247395;28;20050;-72
2023/01/07 04:09:02;;;;;;;10.65;6.30;;;;;;;9.04;100.00;101249.97;6247392;28;20049;-72
2023/01/07 04:12:03;;;;;;;14.20;6.20;;;;;;;9.03;100.00;101253.50;6247157;28;20056;-72
2023/01/07 04:15:05;;;;;;;11.27;6.00;;;;;;;9.03;100.00;101252.63;6247203;28;20053;-72
2023/01/07 04:18:07;;;;;;;9.98;5.72;;;;;;;9.05;100.00;101251.69;6247015;28;20497;-72
2023/01/07 04:21:10;;;;;;;13.20;6.40;;;;;;;9.06;100.00;101249.91;6246880;28;20068;-72
2023/01/07 04:24:11;;;;;;;10.43;6.03;;;;;;;9.08;100.00;101250.69;6246463;28;20460;-72
2023/01/07 04:27:12;;;;;;;11.90;6.15;;;;;;;9.10;100.00;101243.63;6246965;28;20037;-72
2023/01/07 04:30:14;;;;;;;8.13;5.55;;;;;;;9.11;100.00;101247.97;6246574;28;20049;-72
2023/01/07 04:33:15;;;;;;;8.73;4.82;;;;;;;9.12;100.00;101244.41;6246586;28;20444;-72
2023/01/07 04:36:18;;;;;;;9.05;4.63;;;;;;;9.18;100.00;101241.56;6245613;28;20041;-72
2023/01/07 04:39:19;;;;;;;9.55;4.90;;;;;;;9.15;100.00;101237.28;6246562;28;20053;-72
2023/01/07 04:42:20;;;;;;;9.18;5.10;;;;;;;9.16;100.00;101235.53;6246145;28;20402;-72
2023/01/07 04:45:22;;;;;;;7.28;4.43;;;;;;;9.15;100.00;101233.81;6246731;28;20049;-72
2023/01/07 04:48:23;;;;;;;8.00;4.72;;;;;;;9.15;100.00;101237.28;6246574;28;20049;-72
2023/01/07 04:51:26;;;;;;;8.93;4.65;;;;;;;9.18;100.00;101238.94;6246406;28;20050;-72
2023/01/07 04:54:27;;;;;;;6.63;3.83;;;;;;;9.20;100.00;101237.09;6246566;28;20049;-72
2023/01/07 04:57:28;;;;;;;7.10;4.05;;;;;;;9.19;100.00;101242.44;6250142;28;20041;-72
2023/01/07 05:00:30;;;;;;;8.13;4.47;;;;;;;9.13;100.00;101227.78;6251281;28;20417;-72
2023/01/07 05:03:33;;;;;;;6.15;4.03;;;;;;;9.10;100.00;101228.75;6251414;28;20049;-72
2023/01/07 05:06:35;;;;;;;7.68;4.03;;;;;;;9.07;100.00;101228.00;6251593;28;20046;-72
2023/01/07 05:09:37;;;;;;;9.75;4.72;;;;;;;9.07;100.00;101228.00;6251301;28;20049;-72
2023/01/07 05:12:38;;;;;;;7.20;4.30;;;;;;;9.07;100.00;101221.00;6251396;28;20530;-72
2023/01/07 05:15:39;;;;;;;6.07;3.90;;;;;;;9.04;100.00;101222.91;6251206;28;20057;-72
2023/01/07 05:18:41;;;;;;;6.43;3.58;;;;;;;9.03;100.00;101214.16;6251392;28;20056;-72
2023/01/07 05:21:43;;;;;;;5.97;3.53;;;;;;;9.04;100.00;101221.16;6250872;28;20072;-72
2023/01/07 05:24:45;;;;;;;6.68;3.78;;;;;;;9.04;100.00;101213.28;6251053;28;20053;-72
2023/01/07 05:27:46;;;;;;;5.30;3.25;;;;;;;8.99;100.00;101215.19;6251089;28;20048;-72
2023/01/07 05:30:47;;;;;;;4.07;2.63;;;;;;;9.01;100.00;101221.25;6250785;28;20057;-71
2023/01/07 05:33:49;;;;;;;3.97;2.67;;;;;;;9.07;100.00;101213.13;6250896;28;20057;-72
2023/01/07 05:36:51;;;;;;;5.68;2.78;;;;;;;9.06;100.00;101207.97;6250876;28;20061;-72
2023/01/07 05:39:53;;;;;;;4.93;2.58;;;;;;;9.05;100.00;101219.38;6250570;28;20045;-72
2023/01/07 05:42:54;;;;;;;3.45;2.13;;;;;;;9.11;100.00;101208.63;6250983;28;20049;-71
2023/01/07 05:45:56;;;;;;;3.58;2.25;;;;;;;9.08;100.00;101214.00;6250897;28;20049;-72
2023/01/07 05:48:57;;;;;;;3.47;1.95;;;;;;;9.07;100.00;101212.28;6250494;28;21042;-72
2023/01/07 05:52:00;;;;;;;7.30;2.53;;;;;;;9.10;100.00;101205.16;6250371;28;20053;-72
2023/01/07 05:55:01;;;;;;;4.07;1.90;;;;;;;9.06;100.00;101213.22;6250174;28;20140;-72
2023/01/07 05:58:02;;;;;;;3.08;1.77;;;;;;;9.05;100.00;101201.03;6250534;28;20050;-72
2023/01/07 06:01:04;;;;;;;2.38;1.45;;;;;;;9.05;100.00;101207.13;6250153;28;20049;-72
2023/01/07 06:04:07;;;;;;;2.90;1.67;;;;;;;9.06;100.00;101208.81;6250031;28;20516;-72
2023/01/07 06:07:09;;;;;;;1.85;1.48;;;;;;;9.08;100.00;101209.63;6250313;28;20053;-72
2023/01/07 06:10:11;;;;;;;3.63;1.90;;;;;;;9.06;100.00;101213.22;6249755;28;20054;-72
2023/01/07 06:13:12;;;;;;;1.55;1.25;;;;;;;9.10;100.00;101205.16;6250438;28;20054;-72
2023/01/07 06:16:14;;;;;;;1.60;1.40;;;;;;;9.07;100.00;101207.03;6249596;28;20390;-72
2023/01/07 06:19:15;;;;;;;7.30;1.52;;;;;;;9.05;100.00;101198.41;6250052;28;20052;-72
2023/01/07 06:22:18;;;;;;;2.70;1.60;;;;;;;9.04;100.00;101194.94;6249490;28;20066;-72
2023/01/07 06:25:19;;;;;;;2.05;1.50;;;;;;;9.04;100.00;101194.06;6249781;28;20049;-72
2023/01/07 06:28:20;;;;;;;2.42;1.73;;;;;;;9.00;100.00;101197.72;6249741;28;20497;-72
2023/01/07 06:31:22;;;;;;;2.88;1.75;;;;;;;9.00;100.00;101188.09;6249573;28;20045;-72
2023/01/07 06:34:23;;;;;;;2.65;1.45;;;;;;;9.01;100.00;101197.66;6249592;28;20080;-72
2023/01/07 06:37:26;;;;;;;7.65;1.30;;;;;;;9.01;100.00;101189.78;6249247;28;20041;-72
2023/01/07 06:40:27;;;;;;;2.88;1.55;;;;;;;8.98;100.00;101199.53;6249216;28;20412;-72
2023/01/07 06:43:29;;;;;;;1.75;1.30;;;;;;;9.00;100.00;101188.09;6249318;28;20057;-72
2023/01/07 06:46:30;;;;;;;1.30;1.10;;;;;;;8.99;100.00;101190.75;6249263;28;20049;-72
2023/01/07 06:49:31;;;;;;;2.05;1.40;;;;;;;9.01;100.00;101195.03;6249131;28;20405;-72
2023/01/07 06:52:34;;;;;;;1.30;1.02;;;;;;;9.08;100.00;101193.00;6248876;28;20054;-72
2023/01/07 06:55:35;;;;;;;1.52;1.08;;;;;;;9.07;100.00;101194.78;6248930;28;20412;-72
2023/01/07 06:58:37;;;;;;;1.83;1.10;;;;;;;9.07;100.00;101192.16;6249065;28;20045;-72
2023/01/07 07:01:38;;;;;;;1.73;0.85;;;;;;;9.03;100.00;101190.56;6248689;28;20053;-71
2023/01/07 07:04:39;;;;;;;3.08;1.00;;;;;;;9.02;100.00;101186.25;6248547;28;20401;-71
2023/01/07 07:07:42;;;;;;;1.48;0.85;;;;;;;9.05;100.00;101186.13;6248790;28;20049;-71
2023/01/07 07:10:43;;;;;;;1.85;1.40;;;;;;;9.03;100.00;101181.84;6248405;28;20481;-72
2023/01/07 07:13:45;;;;;;;1.08;0.80;;;;;;;8.96;100.00;101177.78;6248527;28;20056;-72
2023/01/07 07:16:48;;;;;;;1.00;0.50;;;;;;;8.95;100.00;101183.94;6248404;28;20046;-71
2023/01/07 07:19:49;;;;;;;0.68;0.68;;;;;;;8.93;100.00;101184.00;6247941;28;20632;-71
2023/01/07 07:22:52;;;;;;;0.98;0.80;;;;;;;8.89;100.00;101174.53;6248189;28;20049;-71
2023/01/07 07:25:53;;;;;;;6.63;0.60;;;;;;;8.89;100.00;101179.78;6248190;28;20072;-71
2023/01/07 07:28:54;;;;;;;0.73;0.57;;;;;;;8.86;100.00;101177.31;6248140;28;20477;-72
2023/01/07 07:31:56;;;;;;;0.95;0.70;;;;;;;8.85;100.00;101175.56;6248190;28;20046;-72
2023/01/07 07:34:57;;;;;;;1.52;0.80;;;;;;;8.83;100.00;101177.41;6247869;28;20417;-71
2023/01/07 07:38:00;;;;;;;2.40;0.70;;;;;;;8.77;100.00;101177.66;6248054;28;20057;-71
2023/01/07 07:41:01;;;;;;;0.80;0.80;;;;;;;8.74;100.00;101180.41;6247820;28;20064;-71
2023/01/07 07:44:02;;;;;;;1.02;0.52;;;;;;;8.76;100.00;101176.78;6247616;28;20416;-71
2023/01/07 07:47:04;;;;;;;0.77;0.75;;;;;;;8.72;100.00;101179.59;6247770;28;20448;-71
2023/01/07 07:50:05;;;;;;;1.35;0.65;;;;;;;8.69;100.00;101182.34;6247528;28;20053;-71
2023/01/07 07:53:09;;;;;;;0.73;0.70;;;;;;;8.69;100.00;101182.34;6247627;28;20429;-71
2023/01/07 07:56:10;;;;;;;2.08;1.20;;;;;;;8.67;100.00;101169.28;6247447;28;20572;-71
2023/01/07 07:59:12;;;;;;;3.08;1.20;;;;;;;8.66;100.00;101175.44;6247674;28;20056;-71
2023/01/07 08:02:14;;;;;;;1.65;1.05;;;;;;;8.68;100.00;101178.88;6247311;28;20060;-71
2023/01/07 08:05:15;;;;;;;0.68;0.68;;;;;;;8.60;100.00;101175.69;6247491;28;20536;-71
2023/01/07 08:08:18;;;;;;;1.83;0.90;;;;;;;8.54;100.00;101165.41;6247439;28;20052;-71
2023/01/07 08:11:19;;;;;;;0.98;0.77;;;;;;;8.51;100.00;101168.19;6247372;28;20056;-71
2023/01/07 08:14:21;;;;;;;1.05;0.80;;;;;;;8.44;100.00;101164.91;6247127;28;20045;-71
2023/01/07 08:17:22;;;;;;;1.42;0.77;;;;;;;8.43;100.00;101165.00;6247032;28;20053;-71
2023/01/07 08:20:23;;;;;;;0.75;0.60;;;;;;;8.38;100.00;101159.94;6246909;28;20060;-71
2023/01/07 08:23:27;;;;;;;1.00;0.73;;;;;;;8.36;100.00;101160.00;6246925;28;20060;-71
2023/01/07 08:26:28;;;;;;;1.50;0.90;;;;;;;8.38;100.00;101157.31;6246419;28;20410;-70
2023/01/07 08:29:30;;;;;;;1.13;0.60;;;;;;;8.41;100.00;101164.22;6246301;28;20046;-71
2023/01/07 08:32:31;;;;;;;1.25;0.88;;;;;;;8.37;100.00;101163.47;6246173;28;20053;-71
2023/01/07 08:35:32;;;;;;;1.00;0.80;;;;;;;8.38;100.00;101163.41;6245635;28;20116;-71
2023/01/07 08:38:35;;;;;;;1.58;0.80;;;;;;;8.43;100.00;101167.59;6246554;28;20045;-72
2023/01/07 08:41:36;;;;;;;1.30;0.88;;;;;;;8.48;100.00;101160.44;6246387;28;20049;-71
2023/01/07 08:44:38;;;;;;;0.82;0.65;;;;;;;8.53;100.00;101166.34;6246714;28;20060;-71
2023/01/07 08:47:39;;;;;;;1.08;0.82;;;;;;;8.60;100.00;101167.84;6246857;28;20041;-71
2023/01/07 08:50:40;;;;;;;0.52;0.50;;;;;;;8.60;100.00;101170.44;6246116;28;20742;-71
2023/01/07 08:53:43;;;;;;;1.70;1.10;;;;;;;8.62;100.00;101173.84;6246665;28;20049;-71
2023/01/07 08:56:44;;;;;;;1.85;1.10;;;;;;;8.64;100.00;101165.03;6246438;28;20057;-72
2023/01/07 08:59:46;;;;;;;3.78;0.80;;;;;;;8.68;100.00;101164.91;6246514;28;20050;-71
2023/01/07 09:02:48;;;;;;;2.53;0.80;;;;;;;8.67;100.00;101158.81;6246479;28;20049;-71
2023/01/07 09:05:49;;;;;;;4.93;0.95;;;;;;;8.78;100.00;101154.00;6246238;28;20136;-71
2023/01/07 09:08:51;;;;;;;0.50;0.50;;;;;;;8.79;100.00;101157.47;6246512;28;20046;-71
2023/01/07 09:11:53;;;;;;;1.30;0.90;;;;;;;8.83;100.00;101164.31;6246163;28;20599;-71
2023/01/07 09:14:55;;;;;;;2.47;0.90;;;;;;;8.89;100.00;101158.81;6246398;28;20049;-71
2023/01/07 09:17:56;;;;;;;1.15;0.82;;;;;;;8.86;100.00;101159.81;6246387;28;20048;-71
2023/01/07 09:20:57;;;;;;;0.70;0.60;;;;;;;8.92;100.00;101155.25;6246176;28;20045;-71
2023/01/07 09:24:00;;;;;;;0.73;0.65;;;;;;;8.92;100.00;101150.00;6246089;28;20045;-71
2023/01/07 09:27:01;;;;;;;1.65;0.73;;;;;;;8.93;100.00;101149.06;6246341;28;20512;-71
2023/01/07 09:30:03;;;;;;;0.95;0.80;;;;;;;8.95;100.00;101145.50;6246220;28;20050;-71
2023/01/07 09:33:04;;;;;;;1.40;0.98;;;;;;;8.97;100.00;101148.03;6246297;28;20060;-71
2023/01/07 09:36:06;;;;;;;1.45;1.02;;;;;;;8.95;100.00;101142.88;6246046;28;20053;-71
2023/01/07 09:39:10;;;;;;;2.90;0.73;;;;;;;8.99;100.00;101143.56;6246177;28;20056;-71
2023/01/07 09:42:23;;;;;;;2.83;1.23;;;;;;;8.96;100.00;101141.09;6247245;28;20050;-71
2023/01/07 09:45:29;;;;;;;1.45;0.80;;;;;;;8.97;100.00;101146.25;6250716;28;20073;-71
2023/01/07 09:48:34;;;;;;;1.27;1.00;;;;;;;9.06;100.00;101134.56;6250594;28;20061;-71
2023/01/07 09:51:39;;;;;;;1.63;1.00;;;;;;;9.06;100.00;101140.66;6250437;28;20049;-71
2023/01/07 09:54:45;;;;;;;1.40;1.08;;;;;;;9.07;100.00;101139.72;6250354;28;20053;-71
2023/01/07 09:57:46;;;;;;;5.00;1.13;;;;;;;9.10;100.00;101138.75;6250558;28;20045;-71
2023/01/07 10:00:57;;;;;;;1.38;0.98;;;;;;;9.14;100.00;101132.47;6250166;28;20061;-71
2023/01/07 10:04:14;;;;;;;1.67;0.70;;;;;;;9.19;100.00;101127.91;6250327;28;20076;-71
2023/01/07 10:07:23;;;;;;;2.03;1.05;;;;;;;9.20;100.00;101121.72;6250108;28;20456;-71
2023/01/07 10:10:29;;;;;;;;;;;;;;;9.23;100.00;101128.63;6250573;28;20045;-71
2023/01/07 10:13:43;;;;;;;1.77;0.90;;;;;;;9.29;100.00;101126.59;6250423;28;19948;-71
2023/01/07 10:16:51;;;;;;;1.50;0.77;;;;;;;9.35;100.00;101125.47;6250141;28;20050;-71
2023/01/07 10:20:00;;;;;;;1.08;0.90;;;;;;;9.33;100.00;101124.69;6249701;28;20045;-71
2023/01/07 10:23:07;;;;;;;1.27;0.70;;;;;;;9.38;100.00;101109.63;6250030;28;20060;-71
2023/01/07 10:26:18;;;;;;;0.90;0.80;;;;;;;9.40;100.00;101118.25;6249605;28;20049;-71
2023/01/07 10:29:27;;;;;;;1.23;0.80;;;;;;;9.47;100.00;101111.84;6250015;28;20046;-71
2023/01/07 10:32:31;;;;;;;2.50;1.10;;;;;;;9.46;100.00;101114.53;6249431;28;20052;-71
2023/01/07 10:35:36;;;;;;;1.00;0.80;;;;;;;9.47;100.00;101103.13;6249632;28;20103;-71
2023/01/07 10:38:41;;;;;;;4.35;0.88;;;;;;;9.51;100.00;101108.19;6248442;28;20041;-71
2023/01/07 10:41:57;;;;;;;1.17;0.70;;;;;;;9.51;100.00;101099.47;6236368;28;20057;-71
2023/01/07 10:45:15;;;;;;;3.05;0.80;;;;;;;9.51;100.00;101094.22;6247303;28;20416;-71
2023/01/07 10:48:38;;;;;;;2.10;0.95;;;;;;;9.49;100.00;101082.91;6245854;28;20042;-70
2023/01/07 10:52:01;;;;;;;1.05;0.90;;;;;;;9.53;100.00;101077.47;6248260;28;20068;-71
2023/01/07 10:55:20;;;;;;;1.50;1.00;;;;;;;9.51;100.00;101081.94;6246765;28;20056;-71
2023/01/07 10:58:25;;;;;;;1.33;0.90;;;;;;;9.52;100.00;101073.13;6246619;28;20052;-71
2023/01/07 11:01:29;;;;;;;1.45;1.10;;;;;;;9.53;100.00;101063.50;6243111;28;20046;-71
2023/01/07 11:04:30;;;;;;;1.88;1.20;;;;;;;9.52;100.00;101057.41;6247202;28;20496;-71
2023/01/07 11:07:40;;;;;;;1.05;0.93;;;;;;;9.55;100.00;101053.81;6248667;28;20053;-71
2023/01/07 11:10:42;;;;;;;1.20;0.90;;;;;;;9.56;100.00;101045.84;6248611;28;20099;-72
2023/01/07 11:13:54;;;;;;;1.20;0.98;;;;;;;9.60;100.00;101046.56;6248342;28;20509;-71
2023/01/07 11:17:03;;;;;;;2.10;1.00;;;;;;;9.64;100.00;101043.75;6248264;28;20072;-72
2023/01/07 11:20:05;;;;;;;1.17;0.90;;;;;;;9.62;100.00;101035.06;6243623;28;20052;-72
2023/01/07 11:23:18;;;;;;;2.22;1.00;;;;;;;9.59;100.00;101035.22;6244411;28;20053;-72
2023/01/07 11:26:25;;;;;;;2.95;1.92;;;;;;;9.70;100.00;101028.66;6248144;28;20471;-72
2023/01/07 11:29:36;;;;;;;1.70;1.00;;;;;;;9.69;100.00;101019.94;6248298;28;20055;-71
2023/01/07 11:32:40;;;;;;;2.08;1.10;;;;;;;9.69;100.00;101017.31;6248321;28;20056;-72
2023/01/07 11:35:51;;;;;;;1.60;1.23;;;;;;;9.77;100.00;101015.19;6248202;28;20050;-71
2023/01/07 11:38:52;;;;;;;1.42;1.00;;;;;;;9.78;100.00;101010.78;6248173;28;20053;-71
2023/01/07 11:41:56;;;;;;;1.45;1.08;;;;;;;9.82;100.00;101004.47;6247888;28;20055;-71
2023/01/07 11:45:15;;;;;;;1.85;1.20;;;;;;;9.84;100.00;101000.00;6247533;28;20060;-71
2023/01/07 11:48:28;;;;;;;1.83;1.10;;;;;;;9.84;100.00;100992.97;6247320;28;20045;-72
2023/01/07 11:51:39;;;;;;;2.47;1.00;;;;;;;9.87;100.00;100984.09;6247093;28;20056;-72
2023/01/07 11:54:40;;;;;;;2.97;1.13;;;;;;;9.88;100.00;100983.19;6246611;28;20452;-71
2023/01/07 11:57:52;;;;;;;1.30;0.85;;;;;;;9.90;100.00;100976.06;6247112;28;20045;-71
2023/01/07 12:01:15;;;;;;;1.08;0.95;;;;;;;9.87;100.00;100963.97;6247316;28;20072;-71
2023/01/07 12:04:22;;;;;;;3.53;0.80;;;;;;;9.91;100.00;100959.44;6246934;28;20391;-71
2023/01/07 12:07:25;;;;;;;0.80;0.75;;;;;;;9.96;100.00;100954.81;6247411;28;20057;-71
2023/01/07 12:10:30;;;;;;;0.73;0.73;;;;;;;10.05;100.00;100954.38;6243298;28;20041;-72
2023/01/07 12:13:33;;;;;;;1.13;0.90;;;;;;;10.04;100.00;100952.66;6247185;28;20497;-71
2023/01/07 12:16:36;;;;;;;0.60;0.50;;;;;;;10.08;100.00;100948.09;6246925;28;20136;-71
2023/01/07 12:20:01;;;;;;;1.08;0.70;;;;;;;10.03;100.00;100940.44;6247167;28;20048;-71
2023/01/07 12:23:15;;;;;;;0.77;0.65;;;;;;;10.09;100.00;100929.66;6246998;28;20053;-71
2023/01/07 12:26:20;;;;;;;1.35;0.90;;;;;;;10.07;100.00;100930.66;6247142;28;20053;-71
2023/01/07 12:29:30;;;;;;;0.70;0.63;;;;;;;10.07;100.00;100921.00;6246695;28;20509;-71
2023/01/07 12:32:47;;;;;;;1.10;0.80;;;;;;;10.07;100.00;100912.28;6242685;28;20049;-72
2023/01/07 12:35:48;;;;;;;0.93;0.77;;;;;;;10.04;100.00;100909.81;6241338;28;20053;-73
2023/01/07 12:38:56;;;;;;;0.50;0.45;;;;;;;10.04;100.00;100894.91;6245966;28;20052;-72
2023/01/07 12:42:03;;;;;;;0.52;0.50;;;;;;;10.03;100.00;100893.19;6246529;28;20421;-72
2023/01/07 12:45:13;;;;;;;0.50;0.50;;;;;;;10.03;100.00;100889.72;6246604;28;20037;-72
2023/01/07 12:48:23;;;;;;;0.82;0.63;;;;;;;9.98;100.00;100889.09;6247121;28;20050;-72
2023/01/07 12:51:29;;;;;;;1.42;0.50;;;;;;;9.99;100.00;100883.78;6246681;28;20057;-72
2023/01/07 12:54:42;;;;;;;1.25;0.60;;;;;;;10.01;100.00;100867.94;6246388;28;20060;-72
2023/01/07 12:57:51;;;;;;;0.50;0.50;;;;;;;10.03;100.00;100856.41;6246686;28;20050;-72
2023/01/07 13:00:56;;;;;;;1.00;0.60;;;;;;;10.04;100.00;100857.31;6246539;28;20050;-72
2023/01/07 13:04:08;;;;;;;0.40;0.40;;;;;;;10.08;100.00;100853.56;6246226;28;20437;-72
2023/01/07 13:07:14;;;;;;;0.55;0.50;;;;;;;10.13;100.00;100851.59;6246704;28;20049;-71
2023/01/07 13:10:20;;;;;;;1.60;0.52;;;;;;;10.20;100.00;100839.84;6246418;28;20073;-72
2023/01/07 13:13:26;;;;;;;0.73;0.40;;;;;;;10.20;100.00;100845.09;6246400;28;20493;-71
2023/01/07 13:16:27;;;;;;;0.60;0.60;;;;;;;10.20;100.00;100839.84;6246001;28;20520;-72
2023/01/07 13:19:30;;;;;;;0.73;0.50;;;;;;;10.20;100.00;100839.84;6250851;28;20048;-72
2023/01/07 13:22:36;;;;;;;0.63;0.50;;;;;;;10.20;100.00;100834.59;6251148;28;20042;-72
2023/01/07 13:25:52;;;;;;;1.50;0.60;;;;;;;10.13;100.00;100825.34;6250872;28;20045;-72
2023/01/07 13:29:08;;;;;;;0.45;0.45;;;;;;;10.14;100.00;100827.88;6245192;28;20053;-72
2023/01/07 13:32:24;;;;;;;0.82;0.65;;;;;;;10.21;100.00;100822.28;6246652;28;20774;-72
2023/01/07 13:36:06;;;;;;;0.65;0.65;;;;;;;10.11;100.00;100821.91;6250620;28;20046;-72
2023/01/07 13:39:28;;;;;;;0.88;0.65;;;;;;;10.09;100.00;100821.16;6206959;28;20493;-72
2023/01/07 13:42:41;;;;;;;1.60;0.90;;;;;;;10.07;100.00;100823.00;6250541;28;20532;-72
2023/01/07 13:45:49;;;;;;;0.43;0.43;;;;;;;10.06;100.00;100814.28;6242752;28;20057;-72
2023/01/07 13:48:53;;;;;;;0.50;0.50;;;;;;;10.00;100.00;100809.34;6250934;28;20413;-72
2023/01/07 13:52:11;;;;;;;0.68;0.60;;;;;;;9.98;100.00;100798.03;6250272;28;20049;-72
2023/01/07 13:55:31;;;;;;;5.28;0.70;;;;;;;9.98;100.00;100791.94;6250732;28;20056;-72
2023/01/07 13:58:41;;;;;;;3.58;0.75;;;;;;;9.97;100.00;100791.09;6250242;28;20041;-72
2023/01/07 14:02:20;;;;;;;0.98;0.80;;;;;;;9.95;100.00;100784.22;6250515;28;20060;-72
2023/01/07 14:05:26;;;;;;;0.57;0.50;;;;;;;9.88;100.00;100792.41;6250182;28;20150;-72
2023/01/07 14:08:29;;;;;;;0.57;0.57;;;;;;;9.87;100.00;100788.09;6245526;28;20288;-71
2023/01/07 14:11:49;;;;;;;1.55;1.02;;;;;;;9.82;100.00;100784.84;6249786;28;20056;-72
2023/01/07 14:15:05;;;;;;;1.10;0.90;;;;;;;9.81;100.00;100788.41;6235057;28;20053;-72
2023/01/07 14:18:43;;;;;;;1.88;0.88;;;;;;;9.76;100.00;100779.88;6249268;28;20508;-72
2023/01/07 14:22:05;;;;;;;1.58;1.23;;;;;;;9.78;100.00;100764.09;6232135;28;20053;-72
2023/01/07 14:25:32;;;;;;;1.33;0.65;;;;;;;9.71;100.00;100775.78;6242828;28;20041;-72